createdAt,value
2018-12-30T00:02:09.666Z,3.67
2018-12-30T00:04:39.212Z,3.35
2018-12-30T00:07:09.205Z,4.20
2018-12-30T00:09:39.207Z,3.95
2018-12-30T00:12:08.630Z,4.00
2018-12-30T00:14:38.485Z,3.95
2018-12-30T00:17:08.177Z,4.67
2018-12-30T00:19:42.356Z,4.00
2018-12-30T00:22:09.203Z,3.20
2018-12-30T00:24:38.967Z,4.15
2018-12-30T00:27:08.845Z,3.95
2018-12-30T00:29:38.296Z,3.62
2018-12-30T00:32:08.206Z,3.52
2018-12-30T00:34:38.223Z,3.75
2018-12-30T00:37:19.811Z,3.87
2018-12-30T00:39:49.648Z,3.90
2018-12-30T00:42:19.523Z,3.58
2018-12-30T00:44:49.349Z,4.80
2018-12-30T00:47:19.291Z,3.80
2018-12-30T00:49:49.043Z,4.05
2018-12-30T00:52:18.561Z,4.95
2018-12-30T00:54:48.216Z,3.72
2018-12-30T00:57:18.279Z,4.08
2018-12-30T00:59:48.082Z,3.00
2018-12-30T01:02:17.726Z,3.60
2018-12-30T01:04:47.420Z,4.00
2018-12-30T01:07:17.297Z,4.97
2018-12-30T01:09:47.245Z,3.70
2018-12-30T01:12:16.882Z,4.40
2018-12-30T01:14:46.400Z,4.12
2018-12-30T01:17:16.280Z,4.33
2018-12-30T01:19:45.923Z,3.40
2018-12-30T01:22:15.379Z,5.17
2018-12-30T01:24:45.500Z,3.85
2018-12-30T01:27:15.310Z,5.03
2018-12-30T01:30:00.493Z,4.65
2018-12-30T01:32:30.290Z,3.83
2018-12-30T01:35:00.264Z,4.03
2018-12-30T01:37:29.896Z,3.80
2018-12-30T01:39:59.776Z,4.80
2018-12-30T01:42:29.656Z,4.70
2018-12-30T01:44:59.359Z,3.20
2018-12-30T01:47:29.175Z,3.65
2018-12-30T01:49:58.815Z,3.50
2018-12-30T01:52:28.463Z,3.42
2018-12-30T01:54:58.069Z,4.15
2018-12-30T01:57:27.880Z,3.15
2018-12-30T01:59:57.596Z,4.10
2018-12-30T02:02:26.991Z,3.42
2018-12-30T02:04:56.699Z,3.95
2018-12-30T02:07:26.355Z,3.50
2018-12-30T02:09:55.699Z,3.30
2018-12-30T02:12:25.618Z,3.30
2018-12-30T02:14:55.158Z,4.17
2018-12-30T02:17:24.829Z,3.62
2018-12-30T02:19:54.674Z,3.62
2018-12-30T02:22:24.315Z,4.47
2018-12-30T02:24:54.264Z,3.22
2018-12-30T02:27:24.074Z,3.60
2018-12-30T02:29:53.894Z,3.00
2018-12-30T02:32:23.657Z,3.65
2018-12-30T02:34:53.292Z,3.42
2018-12-30T02:37:23.115Z,3.95
2018-12-30T02:39:52.877Z,2.77
2018-12-30T02:42:22.454Z,3.10
2018-12-30T02:44:52.281Z,2.77
2018-12-30T02:47:22.252Z,3.35
2018-12-30T02:49:51.917Z,3.33
2018-12-30T02:52:21.676Z,5.55
2018-12-30T02:54:51.131Z,4.20
2018-12-30T02:57:20.776Z,3.77
2018-12-30T02:59:50.284Z,2.85
2018-12-30T03:02:19.804Z,4.95
2018-12-30T03:04:49.515Z,2.98
2018-12-30T03:07:19.302Z,2.92
2018-12-30T03:09:49.211Z,3.45
2018-12-30T03:12:19.028Z,3.55
2018-12-30T03:14:48.793Z,2.87
2018-12-30T03:17:18.558Z,3.05
2018-12-30T03:19:48.559Z,4.10
2018-12-30T03:22:18.436Z,3.83
2018-12-30T03:24:48.197Z,3.70
2018-12-30T03:27:17.966Z,3.02
2018-12-30T03:29:47.499Z,2.50
2018-12-30T03:32:17.630Z,3.33
2018-12-30T03:34:47.290Z,3.33
2018-12-30T03:37:17.050Z,3.25
2018-12-30T03:39:46.532Z,2.67
2018-12-30T03:42:16.144Z,3.22
2018-12-30T03:44:45.488Z,3.47
2018-12-30T03:47:15.428Z,3.70
2018-12-30T03:49:45.076Z,3.87
2018-12-30T03:52:15.075Z,2.45
2018-12-30T03:54:44.827Z,4.03
2018-12-30T03:57:14.986Z,2.80
2018-12-30T03:59:44.908Z,3.75
2018-12-30T04:02:14.521Z,3.20
2018-12-30T04:04:44.231Z,3.17
2018-12-30T04:07:26.294Z,2.67
2018-12-30T04:09:55.692Z,3.98
2018-12-30T04:12:25.271Z,2.50
2018-12-30T04:14:54.841Z,3.67
2018-12-30T04:17:24.552Z,4.00
2018-12-30T04:19:54.463Z,4.12
2018-12-30T04:22:24.070Z,3.47
2018-12-30T04:24:53.876Z,3.30
2018-12-30T04:27:24.907Z,4.03
2018-12-30T04:29:54.523Z,3.45
2018-12-30T04:32:24.548Z,3.50
2018-12-30T04:34:54.044Z,3.60
2018-12-30T04:37:24.068Z,3.20
2018-12-30T04:39:53.827Z,2.42
2018-12-30T04:42:23.371Z,3.62
2018-12-30T04:45:11.348Z,2.40
2018-12-30T04:47:40.683Z,2.72
2018-12-30T04:50:10.625Z,3.70
2018-12-30T04:52:40.331Z,3.45
2018-12-30T04:55:09.904Z,3.60
2018-12-30T04:57:39.544Z,3.75
2018-12-30T05:00:09.306Z,2.80
2018-12-30T05:02:39.269Z,3.70
2018-12-30T05:05:09.063Z,3.92
2018-12-30T05:07:38.585Z,3.72
2018-12-30T05:10:08.343Z,2.95
2018-12-30T05:12:37.747Z,4.62
2018-12-30T05:15:06.960Z,3.10
2018-12-30T05:17:36.903Z,4.10
2018-12-30T05:20:06.713Z,3.85
2018-12-30T05:22:36.215Z,3.27
2018-12-30T05:25:06.024Z,3.58
2018-12-30T05:27:35.705Z,3.27
2018-12-30T05:30:06.066Z,3.65
2018-12-30T05:32:35.662Z,3.55
2018-12-30T05:35:05.822Z,4.58
2018-12-30T05:37:35.384Z,3.35
2018-12-30T05:40:05.402Z,2.92
2018-12-30T05:42:35.040Z,3.65
2018-12-30T05:45:04.985Z,4.35
2018-12-30T05:47:34.799Z,3.35
2018-12-30T05:50:04.743Z,4.22
2018-12-30T05:52:41.555Z,2.72
2018-12-30T05:55:06.117Z,4.25
2018-12-30T05:57:35.641Z,2.77
2018-12-30T06:00:05.654Z,2.83
2018-12-30T06:02:35.646Z,3.20
2018-12-30T06:05:05.822Z,4.37
2018-12-30T06:07:35.367Z,4.00
2018-12-30T06:10:06.301Z,4.05
2018-12-30T06:12:35.757Z,3.40
2018-12-30T06:15:05.757Z,3.80
2018-12-30T06:17:35.426Z,3.70
2018-12-30T06:20:05.447Z,5.62
2018-12-30T06:22:34.946Z,2.98
2018-12-30T06:25:05.107Z,4.50
2018-12-30T06:27:34.667Z,4.12
2018-12-30T06:30:05.045Z,4.12
2018-12-30T06:32:35.461Z,3.65
2018-12-30T06:35:05.221Z,3.20
2018-12-30T06:37:35.038Z,3.83
2018-12-30T06:40:11.229Z,4.87
2018-12-30T06:42:36.612Z,3.45
2018-12-30T06:45:06.432Z,3.62
2018-12-30T06:47:36.127Z,3.40
2018-12-30T06:50:06.187Z,4.35
2018-12-30T06:52:35.749Z,3.47
2018-12-30T06:55:05.579Z,4.45
2018-12-30T06:57:35.391Z,4.10
2018-12-30T07:00:05.812Z,4.58
2018-12-30T07:02:35.307Z,4.17
2018-12-30T07:05:05.056Z,3.60
2018-12-30T07:07:35.512Z,4.72
2018-12-30T07:10:05.577Z,5.40
2018-12-30T07:12:35.033Z,4.00
2018-12-30T07:15:04.553Z,3.22
2018-12-30T07:17:34.499Z,2.37
2018-12-30T07:20:04.505Z,4.70
2018-12-30T07:22:34.260Z,4.80
2018-12-30T07:25:04.020Z,3.90
2018-12-30T07:27:33.794Z,4.80
2018-12-30T07:30:03.548Z,3.00
2018-12-30T07:32:32.934Z,5.12
2018-12-30T07:35:02.751Z,4.03
2018-12-30T07:37:32.133Z,3.90
2018-12-30T07:40:01.839Z,2.98
2018-12-30T07:42:31.616Z,3.87
2018-12-30T07:45:01.491Z,3.90
2018-12-30T07:47:31.579Z,2.90
2018-12-30T07:50:01.502Z,3.80
2018-12-30T07:52:31.018Z,3.10
2018-12-30T07:55:00.893Z,3.72
2018-12-30T07:57:30.894Z,2.67
2018-12-30T08:00:00.893Z,4.10
2018-12-30T08:02:30.752Z,3.85
2018-12-30T08:05:00.419Z,2.75
2018-12-30T08:07:29.962Z,3.00
2018-12-30T08:09:59.792Z,2.80
2018-12-30T08:12:30.086Z,4.15
2018-12-30T08:15:06.463Z,3.92
2018-12-30T08:17:36.463Z,3.58
2018-12-30T08:20:07.261Z,3.55
2018-12-30T08:22:37.234Z,3.20
2018-12-30T08:25:07.275Z,3.75
2018-12-30T08:27:37.012Z,3.65
2018-12-30T08:30:07.026Z,3.77
2018-12-30T08:32:36.674Z,3.65
2018-12-30T08:35:06.596Z,4.40
2018-12-30T08:37:36.420Z,3.55
2018-12-30T08:40:18.652Z,3.50
2018-12-30T08:42:48.522Z,2.98
2018-12-30T08:45:18.219Z,3.65
2018-12-30T08:47:47.962Z,3.37
2018-12-30T08:50:17.633Z,3.30
2018-12-30T08:52:47.148Z,3.00
2018-12-30T08:55:16.849Z,3.40
2018-12-30T08:57:46.733Z,3.50
2018-12-30T09:00:16.730Z,4.10
2018-12-30T09:02:46.630Z,3.30
2018-12-30T09:05:16.612Z,3.27
2018-12-30T09:07:46.313Z,3.12
2018-12-30T09:10:16.376Z,3.55
2018-12-30T09:12:46.260Z,3.22
2018-12-30T09:15:15.888Z,2.90
2018-12-30T09:17:45.349Z,3.70
2018-12-30T09:20:17.466Z,2.90
2018-12-30T09:22:47.326Z,2.75
2018-12-30T09:25:17.852Z,2.90
2018-12-30T09:27:49.253Z,1.90
2018-12-30T09:30:19.126Z,3.35
2018-12-30T09:32:48.956Z,3.12
2018-12-30T09:35:18.899Z,3.02
2018-12-30T09:37:48.439Z,4.17
2018-12-30T09:40:18.225Z,2.75
2018-12-30T09:42:53.934Z,3.85
2018-12-30T09:45:23.590Z,2.70
2018-12-30T09:47:53.447Z,3.25
2018-12-30T09:50:23.329Z,2.52
2018-12-30T09:52:53.207Z,2.55
2018-12-30T09:55:23.220Z,3.62
2018-12-30T09:57:53.098Z,3.00
2018-12-30T10:00:22.886Z,3.42
2018-12-30T10:02:53.208Z,2.80
2018-12-30T10:05:22.862Z,3.67
2018-12-30T10:07:52.841Z,2.33
2018-12-30T10:10:22.636Z,3.10
2018-12-30T10:12:52.370Z,3.35
2018-12-30T10:15:22.281Z,3.25
2018-12-30T10:17:52.006Z,3.12
2018-12-30T10:20:22.128Z,2.90
2018-12-30T10:22:58.649Z,2.62
2018-12-30T10:25:23.240Z,2.90
2018-12-30T10:27:53.212Z,2.83
2018-12-30T10:30:22.842Z,3.00
2018-12-30T10:32:52.659Z,3.47
2018-12-30T10:35:22.486Z,2.50
2018-12-30T10:37:52.371Z,3.15
2018-12-30T10:40:22.110Z,3.22
2018-12-30T10:42:52.127Z,2.42
2018-12-30T10:45:21.770Z,2.30
2018-12-30T10:47:51.777Z,3.85
2018-12-30T10:50:21.348Z,2.80
2018-12-30T10:52:51.651Z,2.83
2018-12-30T10:55:21.582Z,3.33
2018-12-30T10:57:51.523Z,1.87
2018-12-30T11:00:21.287Z,2.65
2018-12-30T11:02:50.916Z,2.17
2018-12-30T11:05:20.684Z,2.15
2018-12-30T11:07:51.146Z,2.25
2018-12-30T11:10:21.049Z,2.35
2018-12-30T11:12:50.921Z,2.30
2018-12-30T11:15:20.684Z,2.15
2018-12-30T11:17:50.830Z,2.70
2018-12-30T11:20:20.688Z,2.05
2018-12-30T11:22:50.522Z,2.90
2018-12-30T11:25:20.233Z,2.60
2018-12-30T11:27:50.048Z,3.17
2018-12-30T11:30:20.159Z,3.25
2018-12-30T11:32:49.967Z,2.50
2018-12-30T11:35:19.659Z,2.55
2018-12-30T11:37:49.283Z,2.25
2018-12-30T11:40:19.000Z,3.25
2018-12-30T11:42:48.935Z,2.87
2018-12-30T11:45:18.613Z,2.58
2018-12-30T11:47:48.628Z,3.25
2018-12-30T11:50:18.100Z,3.62
2018-12-30T11:52:47.841Z,2.90
2018-12-30T11:55:17.551Z,3.30
2018-12-30T11:57:47.196Z,2.98
2018-12-30T12:00:16.955Z,3.90
2018-12-30T12:02:46.572Z,2.37
2018-12-30T12:05:16.181Z,4.10
2018-12-30T12:07:45.889Z,2.80
2018-12-30T12:10:15.642Z,2.98
2018-12-30T12:12:49.062Z,3.62
2018-12-30T12:15:17.201Z,2.58
2018-12-30T12:17:46.843Z,3.00
2018-12-30T12:20:16.718Z,3.12
2018-12-30T12:22:46.480Z,3.37
2018-12-30T12:25:16.375Z,3.55
2018-12-30T12:27:46.120Z,3.50
2018-12-30T12:30:15.996Z,3.25
2018-12-30T12:32:45.740Z,2.77
2018-12-30T12:35:15.750Z,3.58
2018-12-30T12:37:45.820Z,3.27
2018-12-30T12:40:15.882Z,3.75
2018-12-30T12:42:45.754Z,3.08
2018-12-30T12:45:15.584Z,3.08
2018-12-30T12:47:45.440Z,3.30
2018-12-30T12:50:15.341Z,2.87
2018-12-30T12:52:45.351Z,4.45
2018-12-30T12:55:15.037Z,4.42
2018-12-30T12:57:45.032Z,3.40
2018-12-30T13:00:14.988Z,3.02
2018-12-30T13:02:44.919Z,2.95
2018-12-30T13:05:14.716Z,3.12
2018-12-30T13:07:44.424Z,2.85
2018-12-30T13:10:14.223Z,2.92
2018-12-30T13:12:44.036Z,3.12
2018-12-30T13:15:13.640Z,3.50
2018-12-30T13:17:43.114Z,4.50
2018-12-30T13:20:12.991Z,2.90
2018-12-30T13:22:42.630Z,3.08
2018-12-30T13:25:12.270Z,4.75
2018-12-30T13:27:42.183Z,2.83
2018-12-30T13:30:11.728Z,3.45
2018-12-30T13:32:41.598Z,2.58
2018-12-30T13:35:11.559Z,3.77
2018-12-30T13:37:41.431Z,3.95
2018-12-30T13:40:10.888Z,3.55
2018-12-30T13:42:40.742Z,3.90
2018-12-30T13:45:10.161Z,3.98
2018-12-30T13:47:39.880Z,3.22
2018-12-30T13:50:10.230Z,3.27
2018-12-30T13:52:39.872Z,3.17
2018-12-30T13:55:09.590Z,3.65
2018-12-30T13:57:39.400Z,3.70
2018-12-30T14:00:10.109Z,4.37
2018-12-30T14:02:39.992Z,3.92
2018-12-30T14:05:09.630Z,4.60
2018-12-30T14:07:39.083Z,3.72
2018-12-30T14:10:09.632Z,3.50
2018-12-30T14:12:39.566Z,3.70
2018-12-30T14:15:09.512Z,4.15
2018-12-30T14:17:38.948Z,3.37
2018-12-30T14:20:09.213Z,4.45
2018-12-30T14:22:39.350Z,3.77
2018-12-30T14:25:09.206Z,4.20
2018-12-30T14:27:38.951Z,4.17
2018-12-30T14:30:10.005Z,3.80
2018-12-30T14:32:40.149Z,3.60
2018-12-30T14:35:09.807Z,4.17
2018-12-30T14:37:39.877Z,4.00
2018-12-30T14:40:09.633Z,3.42
2018-12-30T14:42:39.677Z,4.10
2018-12-30T14:45:10.110Z,4.10
2018-12-30T14:47:40.351Z,4.45
2018-12-30T14:50:12.035Z,3.87
2018-12-30T14:52:42.151Z,3.77
2018-12-30T14:55:12.154Z,4.58
2018-12-30T14:57:42.411Z,3.87
2018-12-30T15:00:12.631Z,3.42
2018-12-30T15:02:42.772Z,3.75
2018-12-30T15:05:12.992Z,3.20
2018-12-30T15:07:42.799Z,3.40
2018-12-30T15:10:12.986Z,3.27
2018-12-30T15:12:43.349Z,4.08
2018-12-30T15:15:13.360Z,4.22
2018-12-30T15:17:43.345Z,3.33
2018-12-30T15:20:13.236Z,4.15
2018-12-30T15:22:43.241Z,4.50
2018-12-30T15:25:13.362Z,4.95
2018-12-30T15:27:42.870Z,4.42
2018-12-30T15:30:12.990Z,4.97
2018-12-30T15:32:43.004Z,4.67
2018-12-30T15:35:13.176Z,4.72
2018-12-30T15:37:43.190Z,5.60
2018-12-30T15:40:13.247Z,4.90
2018-12-30T15:42:43.222Z,5.30
2018-12-30T15:45:13.706Z,5.50
2018-12-30T15:47:43.663Z,6.22
2018-12-30T15:50:13.584Z,6.85
2018-12-30T15:52:43.590Z,6.25
2018-12-30T15:55:19.477Z,5.60
2018-12-30T15:57:45.141Z,7.10
2018-12-30T16:00:14.920Z,7.28
2018-12-30T16:02:45.154Z,7.78
2018-12-30T16:05:15.027Z,7.40
2018-12-30T16:07:44.420Z,7.72
2018-12-30T16:10:14.542Z,9.50
2018-12-30T16:12:44.067Z,7.90
2018-12-30T16:15:13.638Z,8.25
2018-12-30T16:17:43.338Z,7.90
2018-12-30T16:20:12.943Z,9.78
2018-12-30T16:22:43.817Z,10.60
2018-12-30T16:25:13.279Z,9.63
2018-12-30T16:27:42.981Z,10.10
2018-12-30T16:30:13.103Z,8.95
2018-12-30T16:32:42.798Z,10.32
2018-12-30T16:35:12.317Z,9.98
2018-12-30T16:37:42.019Z,10.85
2018-12-30T16:40:11.837Z,11.48
2018-12-30T16:42:41.538Z,13.00
2018-12-30T16:45:11.298Z,12.93
2018-12-30T16:47:42.022Z,13.18
2018-12-30T16:50:11.714Z,12.90
2018-12-30T16:52:41.662Z,13.53
2018-12-30T16:55:11.215Z,13.72
2018-12-30T16:57:41.298Z,14.18
2018-12-30T17:00:11.416Z,14.28
2018-12-30T17:02:41.054Z,15.32
2018-12-30T17:05:11.179Z,14.45
2018-12-30T17:07:40.938Z,14.90
2018-12-30T17:10:11.296Z,14.90
2018-12-30T17:12:41.295Z,14.45
2018-12-30T17:15:11.132Z,16.15
2018-12-30T17:17:40.737Z,15.45
2018-12-30T17:20:10.453Z,16.00
2018-12-30T17:22:40.153Z,15.68
2018-12-30T17:25:09.869Z,16.73
2018-12-30T17:27:39.736Z,14.83
2018-12-30T17:30:10.834Z,15.48
2018-12-30T17:32:40.696Z,14.43
2018-12-30T17:35:10.702Z,14.38
2018-12-30T17:37:40.696Z,14.75
2018-12-30T17:40:11.172Z,14.63
2018-12-30T17:42:40.812Z,14.75
2018-12-30T17:45:10.571Z,17.00
2018-12-30T17:47:40.006Z,16.62
2018-12-30T17:50:10.571Z,16.93
2018-12-30T17:52:40.037Z,16.20
2018-12-30T17:55:09.981Z,17.95
2018-12-30T17:57:39.614Z,16.70
2018-12-30T18:00:09.853Z,19.52
2018-12-30T18:02:39.790Z,17.82
2018-12-30T18:05:09.906Z,17.85
2018-12-30T18:07:39.616Z,19.00
2018-12-30T18:10:09.371Z,17.55
2018-12-30T18:12:38.939Z,19.42
2018-12-30T18:15:08.649Z,20.15
2018-12-30T18:17:41.649Z,20.55
2018-12-30T18:20:09.849Z,19.48
2018-12-30T18:22:39.408Z,21.87
2018-12-30T18:25:09.517Z,21.33
2018-12-30T18:27:39.011Z,23.12
2018-12-30T18:30:08.897Z,21.70
2018-12-30T18:32:38.539Z,23.25
2018-12-30T18:35:08.556Z,21.95
2018-12-30T18:37:38.291Z,21.70
2018-12-30T18:40:08.533Z,22.82
2018-12-30T18:42:38.330Z,23.65
2018-12-30T18:45:08.293Z,23.62
2018-12-30T18:47:38.052Z,20.30
2018-12-30T18:50:08.531Z,24.63
2018-12-30T18:52:38.049Z,23.52
2018-12-30T18:55:08.171Z,21.73
2018-12-30T18:57:37.672Z,23.70
2018-12-30T19:00:09.370Z,22.75
2018-12-30T19:02:38.931Z,22.32
2018-12-30T19:05:09.490Z,24.95
2018-12-30T19:07:39.134Z,22.95
2018-12-30T19:10:09.131Z,24.85
2018-12-30T19:12:38.584Z,24.30
2018-12-30T19:15:08.395Z,25.68
2018-12-30T19:17:38.167Z,23.73
2018-12-30T19:20:07.689Z,24.67
2018-12-30T19:22:37.450Z,22.42
2018-12-30T19:25:07.687Z,23.55
2018-12-30T19:27:37.686Z,25.30
2018-12-30T19:30:10.210Z,25.12
2018-12-30T19:32:39.844Z,25.43
2018-12-30T19:35:09.746Z,25.08
2018-12-30T19:37:39.606Z,24.90
2018-12-30T19:40:10.931Z,26.57
2018-12-30T19:42:40.918Z,23.85
2018-12-30T19:45:11.139Z,26.12
2018-12-30T19:47:40.696Z,26.20
2018-12-30T19:50:10.370Z,24.40
2018-12-30T19:52:40.266Z,25.00
2018-12-30T19:55:09.849Z,24.25
2018-12-30T19:57:39.582Z,22.62
2018-12-30T20:00:11.284Z,24.30
2018-12-30T20:02:41.145Z,24.47
2018-12-30T20:05:11.763Z,26.15
2018-12-30T20:07:41.220Z,26.12
2018-12-30T20:10:11.396Z,25.65
2018-12-30T20:12:41.404Z,27.82
2018-12-30T20:15:11.164Z,25.20
2018-12-30T20:17:40.834Z,25.82
2018-12-30T20:20:10.435Z,26.05
2018-12-30T20:22:40.201Z,26.90
2018-12-30T20:25:09.978Z,28.10
2018-12-30T20:27:39.724Z,25.82
2018-12-30T20:30:09.976Z,28.17
2018-12-30T20:32:39.417Z,27.98
2018-12-30T20:35:09.368Z,28.62
2018-12-30T20:37:39.123Z,27.67
2018-12-30T20:40:08.999Z,29.48
2018-12-30T20:42:39.123Z,30.40
2018-12-30T20:45:09.157Z,29.95
2018-12-30T20:47:39.013Z,30.55
2018-12-30T20:50:09.124Z,28.47
2018-12-30T20:52:38.887Z,29.67
2018-12-30T20:55:08.935Z,29.75
2018-12-30T20:57:38.760Z,29.52
2018-12-30T21:00:09.839Z,28.65
2018-12-30T21:02:39.600Z,29.95
2018-12-30T21:05:09.478Z,29.12
2018-12-30T21:07:39.119Z,31.25
2018-12-30T21:10:08.878Z,31.00
2018-12-30T21:12:38.714Z,29.85
2018-12-30T21:15:08.640Z,29.10
2018-12-30T21:17:38.568Z,30.37
2018-12-30T21:20:08.455Z,28.85
2018-12-30T21:22:38.284Z,29.35
2018-12-30T21:25:07.969Z,30.15
2018-12-30T21:27:37.779Z,32.00
2018-12-30T21:30:08.519Z,31.15
2018-12-30T21:32:38.636Z,31.52
2018-12-30T21:35:08.758Z,30.80
2018-12-30T21:37:39.378Z,29.70
2018-12-30T21:40:09.237Z,31.12
2018-12-30T21:42:43.773Z,30.10
2018-12-30T21:45:10.918Z,32.08
2018-12-30T21:47:40.465Z,27.80
2018-12-30T21:50:10.254Z,29.37
2018-12-30T21:52:39.835Z,29.23
2018-12-30T21:55:09.964Z,29.32
2018-12-30T21:57:39.401Z,28.38
2018-12-30T22:00:09.956Z,28.25
2018-12-30T22:02:39.541Z,26.87
2018-12-30T22:05:09.345Z,29.30
2018-12-30T22:07:39.599Z,29.18
2018-12-30T22:10:16.963Z,30.80
2018-12-30T22:12:41.245Z,27.20
2018-12-30T22:15:11.278Z,25.92
2018-12-30T22:17:41.164Z,26.75
2018-12-30T22:20:11.154Z,25.70
2018-12-30T22:22:40.797Z,25.43
2018-12-30T22:25:10.795Z,25.97
2018-12-30T22:27:40.434Z,26.75
2018-12-30T22:30:10.191Z,25.90
2018-12-30T22:32:40.072Z,25.25
2018-12-30T22:35:09.640Z,22.25
2018-12-30T22:37:39.473Z,22.93
2018-12-30T22:40:09.150Z,23.00
2018-12-30T22:42:38.691Z,21.50
2018-12-30T22:45:08.512Z,21.85
2018-12-30T22:47:38.198Z,22.22
2018-12-30T22:50:08.153Z,22.87
2018-12-30T22:52:37.487Z,22.85
2018-12-30T22:55:07.430Z,21.90
2018-12-30T22:57:36.904Z,21.27
2018-12-30T23:00:09.475Z,23.67
2018-12-30T23:02:39.086Z,21.25
2018-12-30T23:05:08.875Z,21.35
2018-12-30T23:07:38.518Z,21.37
2018-12-30T23:10:08.209Z,22.02
2018-12-30T23:12:37.912Z,20.17
2018-12-30T23:15:07.550Z,21.55
2018-12-30T23:17:37.357Z,20.62
2018-12-30T23:20:07.070Z,20.02
2018-12-30T23:22:36.591Z,18.80
2018-12-30T23:25:06.471Z,22.32
2018-12-30T23:27:36.350Z,20.57
2018-12-30T23:30:06.469Z,20.12
2018-12-30T23:32:36.200Z,19.20
2018-12-30T23:35:06.214Z,19.92
2018-12-30T23:37:35.871Z,21.37
2018-12-30T23:40:05.756Z,19.62
2018-12-30T23:42:35.338Z,19.62
2018-12-30T23:45:05.511Z,20.50
2018-12-30T23:47:35.149Z,19.57
2018-12-30T23:50:05.150Z,20.35
2018-12-30T23:52:34.794Z,21.33
2018-12-30T23:55:04.393Z,19.73
2018-12-30T23:57:34.310Z,21.25
